To NAV CANADA Home Page Login to a new session Search on AWWS site Feedback and Comments Disclaimer Vers la page française équivalente Tips FAQ What's new on the site To the Forecasts and Observations / NOTAM section To "File a Flight Plan" website Publications and other links Update of the User's profile FIC Telephone Numbers My Weather Data Folder Route Weather Data Regional Weather Data Local Weather Data To the Forecasts and Observations / NOTAM section
Request Generated 08/31/2016 at 02:05:21 UTC . Weather information available at that time is displayed.

METAR/TAF

THUNDER BAY/ON    (show WxCam)

METAR CYQT 310200Z 28005KT 15SM FEW070 15/12 A3011 RMK AC1 SLP201=
METAR CYQT 310100Z 32003KT 20SM FEW065 18/11 A3008 RMK SC1 SLP190
DENSITY ALT 900FT=
METAR CYQT 310000Z 32006KT 20SM FEW060 22/11 A3007 RMK SC1 SLP187
DENSITY ALT 1400FT=

TAF CYQT 310138Z 3102/3114 32005KT P6SM FEW070
RMK NXT FCST BY 310800Z=
Your time UTC time
Weather data provided by Environment Canada and NAV CANADA